sensor_id;sensor_type;location;lat;lon;timestamp;pressure;altitude;pressure_sealevel;temperature;humidity
29879;BME280;16752;53.364;-1.488;2023-07-31T00:00:48;99147.72;;;23.60;52.29
29879;BME280;16752;53.364;-1.488;2023-07-31T00:03:52;99221.13;;;23.64;53.24
29879;BME280;16752;53.364;-1.488;2023-07-31T00:06:36;99173.31;;;23.36;53.51
29879;BME280;16752;53.364;-1.488;2023-07-31T00:09:42;99097.16;;;22.36;54.68
29879;BME280;16752;53.364;-1.488;2023-07-31T00:12:55;99101.59;;;22.82;53.76
29879;BME280;16752;53.364;-1.488;2023-07-31T00:16:17;99096.38;;;23.45;52.24
29879;BME280;16752;53.364;-1.488;2023-07-31T00:22:09;99196.81;;;23.21;53.84
29879;BME280;16752;53.364;-1.488;2023-07-31T00:24:53;99051.63;;;21.78;55.83
29879;BME280;16752;53.364;-1.488;2023-07-31T00:31:20;99157.47;;;23.35;53.36
29879;BME280;16752;53.364;-1.488;2023-07-31T00:34:04;99126.53;;;23.59;52.52
29879;BME280;16752;53.364;-1.488;2023-07-31T00:36:48;99090.44;;;22.98;53.76
29879;BME280;16752;53.364;-1.488;2023-07-31T00:39:33;99135.53;;;23.71;52.54
29879;BME280;16752;53.364;-1.488;2023-07-31T00:42:17;99066.66;;;22.77;54.18
29879;BME280;16752;53.364;-1.488;2023-07-31T00:45:05;99092.41;;;23.23;53.78
29879;BME280;16752;53.364;-1.488;2023-07-31T00:47:49;99068.53;;;23.28;53.46
29879;BME280;16752;53.364;-1.488;2023-07-31T00:50:35;99059.19;;;23.37;52.73
29879;BME280;16752;53.364;-1.488;2023-07-31T00:53:28;99108.38;;;23.99;52.36
29879;BME280;16752;53.364;-1.488;2023-07-31T00:56:15;99124.25;;;23.94;52.52
29879;BME280;16752;53.364;-1.488;2023-07-31T00:58:59;99136.94;;;23.73;52.78
29879;BME280;16752;53.364;-1.488;2023-07-31T01:01:47;99173.03;;;23.58;54.23
29879;BME280;16752;53.364;-1.488;2023-07-31T01:04:34;99102.91;;;23.87;52.39
29879;BME280;16752;53.364;-1.488;2023-07-31T01:07:24;99176.69;;;24.26;52.56
29879;BME280;16752;53.364;-1.488;2023-07-31T01:10:40;99115.72;;;24.03;52.19
29879;BME280;16752;53.364;-1.488;2023-07-31T01:13:36;99104.59;;;24.06;51.93
29879;BME280;16752;53.364;-1.488;2023-07-31T01:16:33;99073.38;;;23.75;52.15
29879;BME280;16752;53.364;-1.488;2023-07-31T01:19:21;99099.16;;;23.63;53.03
29879;BME280;16752;53.364;-1.488;2023-07-31T01:25:45;99141.13;;;23.63;54.36
29879;BME280;16752;53.364;-1.488;2023-07-31T01:31:28;99085.69;;;24.33;51.87
29879;BME280;16752;53.364;-1.488;2023-07-31T01:34:14;99030.69;;;23.62;52.53
29879;BME280;16752;53.364;-1.488;2023-07-31T01:37:00;99034.91;;;23.76;52.45
29879;BME280;16752;53.364;-1.488;2023-07-31T01:39:44;99023.50;;;23.88;52.10
29879;BME280;16752;53.364;-1.488;2023-07-31T01:42:28;99040.78;;;23.85;52.12
29879;BME280;16752;53.364;-1.488;2023-07-31T01:45:14;99119.50;;;23.96;53.60
29879;BME280;16752;53.364;-1.488;2023-07-31T01:47:58;99020.25;;;23.79;52.38
29879;BME280;16752;53.364;-1.488;2023-07-31T01:50:46;99116.22;;;23.62;54.77
29879;BME280;16752;53.364;-1.488;2023-07-31T01:53:33;99038.16;;;23.15;54.43
29879;BME280;16752;53.364;-1.488;2023-07-31T01:56:17;99021.66;;;23.88;52.64
29879;BME280;16752;53.364;-1.488;2023-07-31T01:59:01;99109.91;;;23.88;53.91
29879;BME280;16752;53.364;-1.488;2023-07-31T02:01:48;99006.63;;;23.62;52.59
29879;BME280;16752;53.364;-1.488;2023-07-31T02:04:35;99079.28;;;24.09;53.00
29879;BME280;16752;53.364;-1.488;2023-07-31T02:07:19;99108.88;;;24.14;53.19
29879;BME280;16752;53.364;-1.488;2023-07-31T02:10:03;99039.81;;;23.80;52.76
29879;BME280;16752;53.364;-1.488;2023-07-31T02:12:47;99004.63;;;22.88;54.89
29879;BME280;16752;53.364;-1.488;2023-07-31T02:15:32;98976.81;;;23.02;54.62
29879;BME280;16752;53.364;-1.488;2023-07-31T02:18:19;99005.84;;;23.80;53.06
29879;BME280;16752;53.364;-1.488;2023-07-31T02:21:03;98962.03;;;23.81;52.45
29879;BME280;16752;53.364;-1.488;2023-07-31T02:23:49;98980.06;;;24.11;52.05
29879;BME280;16752;53.364;-1.488;2023-07-31T02:26:33;99007.47;;;24.31;51.80
29879;BME280;16752;53.364;-1.488;2023-07-31T02:29:20;99056.16;;;24.58;51.68
29879;BME280;16752;53.364;-1.488;2023-07-31T02:32:04;98976.47;;;23.98;52.35
29879;BME280;16752;53.364;-1.488;2023-07-31T02:34:48;98985.81;;;24.32;51.61
29879;BME280;16752;53.364;-1.488;2023-07-31T02:37:34;99012.81;;;24.06;52.85
29879;BME280;16752;53.364;-1.488;2023-07-31T02:40:18;99018.59;;;24.03;53.06
29879;BME280;16752;53.364;-1.488;2023-07-31T02:43:02;99042.91;;;24.45;52.46
29879;BME280;16752;53.364;-1.488;2023-07-31T02:45:51;98971.03;;;24.05;52.02
29879;BME280;16752;53.364;-1.488;2023-07-31T02:48:35;99057.44;;;24.74;51.75
29879;BME280;16752;53.364;-1.488;2023-07-31T02:51:19;99006.88;;;24.22;52.48
29879;BME280;16752;53.364;-1.488;2023-07-31T02:54:04;98949.88;;;24.03;51.90
29879;BME280;16752;53.364;-1.488;2023-07-31T02:56:49;98959.47;;;23.93;52.52
29879;BME280;16752;53.364;-1.488;2023-07-31T02:59:33;99056.63;;;24.73;52.05
29879;BME280;16752;53.364;-1.488;2023-07-31T03:02:17;99031.47;;;24.37;52.94
29879;BME280;16752;53.364;-1.488;2023-07-31T03:05:00;99032.66;;;24.60;52.27
29879;BME280;16752;53.364;-1.488;2023-07-31T03:07:45;98977.47;;;24.41;51.58
29879;BME280;16752;53.364;-1.488;2023-07-31T03:10:34;99001.84;;;24.51;51.95
29879;BME280;16752;53.364;-1.488;2023-07-31T03:13:18;99036.28;;;24.47;52.75
29879;BME280;16752;53.364;-1.488;2023-07-31T03:16:02;98974.91;;;24.27;51.77
29879;BME280;16752;53.364;-1.488;2023-07-31T03:18:46;98977.88;;;24.01;53.11
29879;BME280;16752;53.364;-1.488;2023-07-31T03:21:30;99000.47;;;24.30;52.35
29879;BME280;16752;53.364;-1.488;2023-07-31T03:24:14;99017.19;;;24.44;52.69
29879;BME280;16752;53.364;-1.488;2023-07-31T03:26:58;98969.78;;;24.32;52.47
29879;BME280;16752;53.364;-1.488;2023-07-31T03:29:42;98969.59;;;24.46;51.84
29879;BME280;16752;53.364;-1.488;2023-07-31T03:32:44;98960.00;;;23.76;53.57
29879;BME280;16752;53.364;-1.488;2023-07-31T03:35:28;99042.59;;;24.71;52.51
29879;BME280;16752;53.364;-1.488;2023-07-31T03:38:26;99040.28;;;24.93;51.78
29879;BME280;16752;53.364;-1.488;2023-07-31T03:41:32;98957.09;;;24.21;52.36
29879;BME280;16752;53.364;-1.488;2023-07-31T03:44:19;98993.66;;;24.27;52.83
29879;BME280;16752;53.364;-1.488;2023-07-31T03:47:03;98976.59;;;24.47;52.22
29879;BME280;16752;53.364;-1.488;2023-07-31T03:49:47;99032.34;;;24.86;51.95
29879;BME280;16752;53.364;-1.488;2023-07-31T03:52:31;98960.13;;;24.06;52.81
29879;BME280;16752;53.364;-1.488;2023-07-31T03:55:16;98934.19;;;24.25;51.82
29879;BME280;16752;53.364;-1.488;2023-07-31T03:58:00;99031.28;;;24.87;52.10
29879;BME280;16752;53.364;-1.488;2023-07-31T04:00:51;98969.34;;;24.65;51.55
29879;BME280;16752;53.364;-1.488;2023-07-31T04:03:38;99037.06;;;25.21;51.02
29879;BME280;16752;53.364;-1.488;2023-07-31T04:06:26;99004.94;;;25.03;51.13
29879;BME280;16752;53.364;-1.488;2023-07-31T04:09:11;98963.19;;;24.47;52.16
29879;BME280;16752;53.364;-1.488;2023-07-31T04:11:57;98949.66;;;24.60;51.71
29879;BME280;16752;53.364;-1.488;2023-07-31T04:26:09;98915.16;;;24.15;51.81
29879;BME280;16752;53.364;-1.488;2023-07-31T04:56:33;98943.97;;;23.76;52.97
29879;BME280;16752;53.364;-1.488;2023-07-31T05:26:32;99054.50;;;25.12;51.54
29879;BME280;16752;53.364;-1.488;2023-07-31T05:29:17;98977.84;;;24.62;51.83
29879;BME280;16752;53.364;-1.488;2023-07-31T05:32:01;98951.44;;;24.48;51.88
29879;BME280;16752;53.364;-1.488;2023-07-31T05:34:45;98972.84;;;24.66;51.73
29879;BME280;16752;53.364;-1.488;2023-07-31T05:37:29;99005.97;;;24.53;52.17
29879;BME280;16752;53.364;-1.488;2023-07-31T05:40:14;98970.66;;;24.01;53.53
29879;BME280;16752;53.364;-1.488;2023-07-31T05:42:58;99014.28;;;24.63;52.54
29879;BME280;16752;53.364;-1.488;2023-07-31T05:45:42;98982.16;;;24.63;51.43
29879;BME280;16752;53.364;-1.488;2023-07-31T05:48:26;99030.47;;;25.05;51.54
29879;BME280;16752;53.364;-1.488;2023-07-31T05:51:11;98993.28;;;24.79;51.58
29879;BME280;16752;53.364;-1.488;2023-07-31T05:53:55;98983.25;;;24.74;51.50
29879;BME280;16752;53.364;-1.488;2023-07-31T05:56:39;98997.50;;;24.56;51.96
29879;BME280;16752;53.364;-1.488;2023-07-31T05:59:23;98980.06;;;24.47;52.11
29879;BME280;16752;53.364;-1.488;2023-07-31T06:02:07;98971.69;;;24.44;52.49
29879;BME280;16752;53.364;-1.488;2023-07-31T06:04:52;99001.22;;;24.85;51.84
29879;BME280;16752;53.364;-1.488;2023-07-31T06:07:39;99005.69;;;24.18;53.27
29879;BME280;16752;53.364;-1.488;2023-07-31T06:10:23;98995.00;;;24.18;53.08
29879;BME280;16752;53.364;-1.488;2023-07-31T06:13:10;98894.69;;;23.23;54.27
29879;BME280;16752;53.364;-1.488;2023-07-31T06:15:54;98947.78;;;24.60;51.81
29879;BME280;16752;53.364;-1.488;2023-07-31T06:18:38;98989.47;;;25.05;51.93
29879;BME280;16752;53.364;-1.488;2023-07-31T06:21:22;98974.97;;;25.24;51.09
29879;BME280;16752;53.364;-1.488;2023-07-31T06:24:06;98927.38;;;25.08;51.24
29879;BME280;16752;53.364;-1.488;2023-07-31T06:26:53;98885.66;;;24.70;51.07
29879;BME280;16752;53.364;-1.488;2023-07-31T06:29:54;98965.06;;;25.36;50.58
29879;BME280;16752;53.364;-1.488;2023-07-31T06:32:59;98891.22;;;24.98;50.36
29879;BME280;16752;53.364;-1.488;2023-07-31T06:35:45;98902.03;;;24.62;51.41
29879;BME280;16752;53.364;-1.488;2023-07-31T06:42:28;99017.09;;;25.47;50.74
29879;BME280;16752;53.364;-1.488;2023-07-31T06:48:10;98909.88;;;24.45;51.35
29879;BME280;16752;53.364;-1.488;2023-07-31T06:51:29;98876.22;;;24.19;51.71
29879;BME280;16752;53.364;-1.488;2023-07-31T06:54:15;98981.00;;;24.71;52.53
29879;BME280;16752;53.364;-1.488;2023-07-31T06:57:20;98910.41;;;23.99;52.12
29879;BME280;16752;53.364;-1.488;2023-07-31T07:00:05;98903.56;;;24.21;51.45
29879;BME280;16752;53.364;-1.488;2023-07-31T07:03:17;99019.72;;;24.75;52.09
29879;BME280;16752;53.364;-1.488;2023-07-31T07:06:08;99029.78;;;25.51;50.43
29879;BME280;16752;53.364;-1.488;2023-07-31T07:09:04;99022.22;;;24.88;50.85
29879;BME280;16752;53.364;-1.488;2023-07-31T07:15:51;98957.09;;;24.88;49.97
29879;BME280;16752;53.364;-1.488;2023-07-31T07:22:24;99028.66;;;25.17;50.45
29879;BME280;16752;53.364;-1.488;2023-07-31T07:25:20;98988.72;;;24.31;52.59
29879;BME280;16752;53.364;-1.488;2023-07-31T07:28:21;98891.53;;;24.12;50.91
29879;BME280;16752;53.364;-1.488;2023-07-31T07:31:15;98888.31;;;24.22;50.96
29879;BME280;16752;53.364;-1.488;2023-07-31T07:34:11;98984.13;;;23.45;53.93
29879;BME280;16752;53.364;-1.488;2023-07-31T07:37:11;98863.47;;;23.16;52.38
29879;BME280;16752;53.364;-1.488;2023-07-31T07:39:58;98926.06;;;24.50;50.89
29879;BME280;16752;53.364;-1.488;2023-07-31T07:42:41;98923.34;;;24.20;51.15
29879;BME280;16752;53.364;-1.488;2023-07-31T07:45:25;98968.72;;;24.82;50.74
29879;BME280;16752;53.364;-1.488;2023-07-31T07:48:09;98948.69;;;24.73;49.86
29879;BME280;16752;53.364;-1.488;2023-07-31T07:51:00;98987.19;;;24.17;51.88
29879;BME280;16752;53.364;-1.488;2023-07-31T07:53:43;98845.03;;;23.58;50.87
29879;BME280;16752;53.364;-1.488;2023-07-31T07:56:30;98832.69;;;23.57;50.38
29879;BME280;16752;53.364;-1.488;2023-07-31T07:59:14;98980.81;;;24.73;49.99
29879;BME280;16752;53.364;-1.488;2023-07-31T08:01:58;98977.81;;;24.81;49.06
29879;BME280;16752;53.364;-1.488;2023-07-31T08:05:09;98975.34;;;23.88;50.85
29879;BME280;16752;53.364;-1.488;2023-07-31T08:08:02;98987.16;;;24.42;50.00
29879;BME280;16752;53.364;-1.488;2023-07-31T08:14:28;98893.19;;;23.52;50.38
29879;BME280;16752;53.364;-1.488;2023-07-31T08:17:12;98929.13;;;23.81;49.84
29879;BME280;16752;53.364;-1.488;2023-07-31T08:19:56;98953.47;;;24.52;48.86
29879;BME280;16752;53.364;-1.488;2023-07-31T08:22:42;99008.53;;;24.96;48.58
29879;BME280;16752;53.364;-1.488;2023-07-31T08:25:26;98955.03;;;24.72;48.59
29879;BME280;16752;53.364;-1.488;2023-07-31T08:28:19;98861.56;;;24.22;48.30
29879;BME280;16752;53.364;-1.488;2023-07-31T08:34:39;98915.28;;;25.17;47.71
29879;BME280;16752;53.364;-1.488;2023-07-31T08:37:38;98888.41;;;23.78;49.78
29879;BME280;16752;53.364;-1.488;2023-07-31T08:43:49;98934.63;;;25.31;47.50
29879;BME280;16752;53.364;-1.488;2023-07-31T08:46:40;98952.63;;;25.42;47.29
29879;BME280;16752;53.364;-1.488;2023-07-31T08:49:27;98960.97;;;25.34;47.38
29879;BME280;16752;53.364;-1.488;2023-07-31T08:52:18;98901.19;;;24.91;47.27
29879;BME280;16752;53.364;-1.488;2023-07-31T08:55:23;98957.38;;;24.68;48.24
29879;BME280;16752;53.364;-1.488;2023-07-31T08:58:31;98913.00;;;24.42;48.10
29879;BME280;16752;53.364;-1.488;2023-07-31T09:01:37;98998.91;;;24.89;48.92
29879;BME280;16752;53.364;-1.488;2023-07-31T09:04:26;98900.22;;;23.46;50.56
29879;BME280;16752;53.364;-1.488;2023-07-31T09:07:15;98891.38;;;24.44;48.96
29879;BME280;16752;53.364;-1.488;2023-07-31T09:10:02;98899.25;;;24.20;49.04
29879;BME280;16752;53.364;-1.488;2023-07-31T09:12:48;98901.47;;;23.18;51.34
29879;BME280;16752;53.364;-1.488;2023-07-31T09:15:32;98983.56;;;24.48;49.66
29879;BME280;16752;53.364;-1.488;2023-07-31T09:18:17;98899.03;;;24.22;49.15
29879;BME280;16752;53.364;-1.488;2023-07-31T09:21:06;98979.53;;;24.75;48.78
29879;BME280;16752;53.364;-1.488;2023-07-31T09:23:51;98828.84;;;23.71;49.66
29879;BME280;16752;53.364;-1.488;2023-07-31T09:26:40;98893.63;;;24.28;48.76
29879;BME280;16752;53.364;-1.488;2023-07-31T09:29:26;98862.34;;;24.59;47.77
29879;BME280;16752;53.364;-1.488;2023-07-31T09:32:16;98914.66;;;25.03;47.28
29879;BME280;16752;53.364;-1.488;2023-07-31T09:35:01;98897.63;;;24.97;47.19
29879;BME280;16752;53.364;-1.488;2023-07-31T09:37:49;98988.41;;;24.39;48.78
29879;BME280;16752;53.364;-1.488;2023-07-31T09:40:35;98978.84;;;24.31;49.47
29879;BME280;16752;53.364;-1.488;2023-07-31T09:43:21;98932.25;;;24.99;47.81
29879;BME280;16752;53.364;-1.488;2023-07-31T09:46:13;98927.03;;;25.16;47.62
29879;BME280;16752;53.364;-1.488;2023-07-31T09:49:09;98866.78;;;23.37;49.73
29879;BME280;16752;53.364;-1.488;2023-07-31T09:51:53;98814.84;;;24.06;48.20
29879;BME280;16752;53.364;-1.488;2023-07-31T09:54:38;98903.94;;;23.45;50.13
29879;BME280;16752;53.364;-1.488;2023-07-31T09:57:23;98925.56;;;24.60;48.61
29879;BME280;16752;53.364;-1.488;2023-07-31T10:00:18;98975.00;;;24.76;49.00
29879;BME280;16752;53.364;-1.488;2023-07-31T10:03:08;98960.63;;;24.70;49.42
29879;BME280;16752;53.364;-1.488;2023-07-31T10:05:56;98958.19;;;24.68;49.22
29879;BME280;16752;53.364;-1.488;2023-07-31T10:08:42;98930.75;;;23.82;50.60
29879;BME280;16752;53.364;-1.488;2023-07-31T10:11:27;98971.56;;;24.68;49.00
29879;BME280;16752;53.364;-1.488;2023-07-31T10:14:13;98853.97;;;23.21;50.58
29879;BME280;16752;53.364;-1.488;2023-07-31T10:16:58;98834.13;;;23.35;50.19
29879;BME280;16752;53.364;-1.488;2023-07-31T10:19:43;98980.50;;;24.07;50.32
29879;BME280;16752;53.364;-1.488;2023-07-31T10:22:28;98980.47;;;24.32;49.85
29879;BME280;16752;53.364;-1.488;2023-07-31T10:25:15;98988.06;;;24.35;50.26
29879;BME280;16752;53.364;-1.488;2023-07-31T10:28:02;98910.91;;;23.46;50.25
29879;BME280;16752;53.364;-1.488;2023-07-31T10:30:58;98854.00;;;23.64;49.59
29879;BME280;16752;53.364;-1.488;2023-07-31T10:33:43;98870.50;;;23.97;49.09
29879;BME280;16752;53.364;-1.488;2023-07-31T10:36:27;98877.56;;;24.10;49.42
29879;BME280;16752;53.364;-1.488;2023-07-31T10:39:34;98833.69;;;23.38;50.21
29879;BME280;16752;53.364;-1.488;2023-07-31T10:42:18;98912.88;;;24.37;49.51
29879;BME280;16752;53.364;-1.488;2023-07-31T10:45:05;98800.53;;;23.64;49.46
29879;BME280;16752;53.364;-1.488;2023-07-31T10:47:58;98876.97;;;24.08;49.69
29879;BME280;16752;53.364;-1.488;2023-07-31T10:50:55;98858.53;;;24.36;48.39
29879;BME280;16752;53.364;-1.488;2023-07-31T10:53:40;98937.97;;;24.73;48.82
29879;BME280;16752;53.364;-1.488;2023-07-31T10:56:40;98945.09;;;24.90;48.51
29879;BME280;16752;53.364;-1.488;2023-07-31T10:59:37;98839.66;;;24.13;48.52
29879;BME280;16752;53.364;-1.488;2023-07-31T11:02:33;98832.34;;;23.90;48.85
29879;BME280;16752;53.364;-1.488;2023-07-31T11:05:20;98808.03;;;23.73;48.97
29879;BME280;16752;53.364;-1.488;2023-07-31T11:08:15;98936.19;;;24.96;48.21
29879;BME280;16752;53.364;-1.488;2023-07-31T11:11:44;98919.13;;;24.79;47.96
29879;BME280;16752;53.364;-1.488;2023-07-31T11:14:35;98795.34;;;23.07;50.33
29879;BME280;16752;53.364;-1.488;2023-07-31T11:17:29;98784.84;;;23.86;48.11
29879;BME280;16752;53.364;-1.488;2023-07-31T11:20:37;98955.56;;;24.80;48.27
29879;BME280;16752;53.364;-1.488;2023-07-31T11:24:08;98961.28;;;24.84;48.14
29879;BME280;16752;53.364;-1.488;2023-07-31T11:26:52;98966.78;;;23.79;50.68
29879;BME280;16752;53.364;-1.488;2023-07-31T11:30:01;98850.97;;;23.97;48.46
29879;BME280;16752;53.364;-1.488;2023-07-31T11:32:59;98963.03;;;24.60;49.04
29879;BME280;16752;53.364;-1.488;2023-07-31T11:39:41;98870.88;;;24.01;48.06
29879;BME280;16752;53.364;-1.488;2023-07-31T11:42:25;98892.81;;;24.10;47.89
29879;BME280;16752;53.364;-1.488;2023-07-31T11:48:31;98821.91;;;23.45;48.31
29879;BME280;16752;53.364;-1.488;2023-07-31T11:51:20;98918.00;;;24.02;48.01
29879;BME280;16752;53.364;-1.488;2023-07-31T11:54:35;98931.00;;;24.17;48.45
29879;BME280;16752;53.364;-1.488;2023-07-31T11:57:22;98921.69;;;24.56;47.40
29879;BME280;16752;53.364;-1.488;2023-07-31T12:00:08;98847.25;;;24.46;46.74
29879;BME280;16752;53.364;-1.488;2023-07-31T12:02:59;98792.44;;;23.89;47.19
29879;BME280;16752;53.364;-1.488;2023-07-31T12:09:55;98838.03;;;24.12;48.72
29879;BME280;16752;53.364;-1.488;2023-07-31T12:12:43;98927.50;;;24.16;49.68
29879;BME280;16752;53.364;-1.488;2023-07-31T12:15:41;98877.47;;;24.65;48.39
29879;BME280;16752;53.364;-1.488;2023-07-31T12:18:53;98761.03;;;24.26;47.82
29879;BME280;16752;53.364;-1.488;2023-07-31T12:21:41;98806.69;;;24.61;47.03
29879;BME280;16752;53.364;-1.488;2023-07-31T12:24:28;98866.72;;;24.83;47.36
29879;BME280;16752;53.364;-1.488;2023-07-31T12:27:22;98915.66;;;25.55;47.33
29879;BME280;16752;53.364;-1.488;2023-07-31T12:30:36;98927.06;;;25.27;46.87
29879;BME280;16752;53.364;-1.488;2023-07-31T12:33:22;98886.19;;;24.12;48.69
29879;BME280;16752;53.364;-1.488;2023-07-31T12:36:16;98846.28;;;23.31;49.25
29879;BME280;16752;53.364;-1.488;2023-07-31T12:39:39;98904.31;;;23.92;49.24
29879;BME280;16752;53.364;-1.488;2023-07-31T12:42:30;98853.41;;;23.98;48.27
29879;BME280;16752;53.364;-1.488;2023-07-31T12:45:15;98926.28;;;23.75;49.33
29879;BME280;16752;53.364;-1.488;2023-07-31T12:47:59;98815.97;;;23.00;49.07
29879;BME280;16752;53.364;-1.488;2023-07-31T12:50:43;98859.22;;;24.14;47.84
29879;BME280;16752;53.364;-1.488;2023-07-31T12:53:37;98787.13;;;23.27;48.27
29879;BME280;16752;53.364;-1.488;2023-07-31T12:56:21;98838.53;;;23.47;48.23
29879;BME280;16752;53.364;-1.488;2023-07-31T12:59:05;98859.97;;;23.41;48.49
29879;BME280;16752;53.364;-1.488;2023-07-31T13:05:20;98874.94;;;23.42;48.32
29879;BME280;16752;53.364;-1.488;2023-07-31T13:08:04;98852.47;;;23.06;48.46
29879;BME280;16752;53.364;-1.488;2023-07-31T13:10:51;98835.31;;;23.39;47.52
29879;BME280;16752;53.364;-1.488;2023-07-31T13:14:16;98776.94;;;22.43;49.47
29879;BME280;16752;53.364;-1.488;2023-07-31T13:17:16;98837.78;;;22.91;49.41
29879;BME280;16752;53.364;-1.488;2023-07-31T13:20:10;98820.47;;;23.00;48.98
29879;BME280;16752;53.364;-1.488;2023-07-31T13:22:54;98878.94;;;23.58;48.20
29879;BME280;16752;53.364;-1.488;2023-07-31T13:31:13;98877.97;;;23.52;48.72
29879;BME280;16752;53.364;-1.488;2023-07-31T13:37:43;98799.41;;;23.90;46.86
29879;BME280;16752;53.364;-1.488;2023-07-31T13:40:35;98803.47;;;23.56;47.29
29879;BME280;16752;53.364;-1.488;2023-07-31T13:43:20;98799.94;;;23.18;48.14
29879;BME280;16752;53.364;-1.488;2023-07-31T13:46:07;98844.06;;;23.28;48.82
29879;BME280;16752;53.364;-1.488;2023-07-31T13:57:34;98752.16;;;23.84;47.23
29879;BME280;16752;53.364;-1.488;2023-07-31T14:04:14;98817.47;;;24.24;47.69
29879;BME280;16752;53.364;-1.488;2023-07-31T14:06:59;98866.56;;;24.18;49.27
29879;BME280;16752;53.364;-1.488;2023-07-31T14:10:05;98867.47;;;23.75;48.50
29879;BME280;16752;53.364;-1.488;2023-07-31T14:12:49;98726.00;;;23.86;47.20
29879;BME280;16752;53.364;-1.488;2023-07-31T14:15:36;98871.13;;;24.78;46.59
29879;BME280;16752;53.364;-1.488;2023-07-31T14:18:21;98863.03;;;24.54;47.40
29879;BME280;16752;53.364;-1.488;2023-07-31T14:21:05;98878.13;;;24.79;46.89
29879;BME280;16752;53.364;-1.488;2023-07-31T14:23:50;98799.09;;;24.28;46.76
29879;BME280;16752;53.364;-1.488;2023-07-31T14:26:43;98831.16;;;23.86;48.18
29879;BME280;16752;53.364;-1.488;2023-07-31T14:32:39;98856.69;;;23.82;47.55
29879;BME280;16752;53.364;-1.488;2023-07-31T14:45:06;98711.31;;;23.76;45.69
29879;BME280;16752;53.364;-1.488;2023-07-31T14:47:50;98706.75;;;23.47;45.52
29879;BME280;16752;53.364;-1.488;2023-07-31T14:50:34;98783.84;;;23.87;45.93
29879;BME280;16752;53.364;-1.488;2023-07-31T14:53:21;98681.44;;;23.13;46.54
29879;BME280;16752;53.364;-1.488;2023-07-31T14:56:05;98725.16;;;23.73;46.24
29879;BME280;16752;53.364;-1.488;2023-07-31T14:58:49;98735.28;;;24.31;44.99
29879;BME280;16752;53.364;-1.488;2023-07-31T15:01:34;98701.22;;;23.42;46.16
29879;BME280;16752;53.364;-1.488;2023-07-31T15:04:38;98827.81;;;23.91;46.90
29879;BME280;16752;53.364;-1.488;2023-07-31T15:07:22;98827.69;;;24.16;46.81
29879;BME280;16752;53.364;-1.488;2023-07-31T15:10:09;98744.03;;;24.08;45.25
29879;BME280;16752;53.364;-1.488;2023-07-31T15:12:58;98801.16;;;24.14;46.24
29879;BME280;16752;53.364;-1.488;2023-07-31T15:15:42;98838.59;;;24.62;45.88
29879;BME280;16752;53.364;-1.488;2023-07-31T15:18:29;98712.63;;;23.86;45.32
29879;BME280;16752;53.364;-1.488;2023-07-31T15:21:14;98710.16;;;23.54;45.99
29879;BME280;16752;53.364;-1.488;2023-07-31T15:24:01;98802.56;;;24.47;45.77
29879;BME280;16752;53.364;-1.488;2023-07-31T15:26:52;98800.41;;;24.55;45.39
29879;BME280;16752;53.364;-1.488;2023-07-31T15:29:46;98775.13;;;24.21;45.71
29879;BME280;16752;53.364;-1.488;2023-07-31T15:32:31;98795.66;;;24.81;44.41
29879;BME280;16752;53.364;-1.488;2023-07-31T15:35:15;98705.41;;;23.56;46.81
29879;BME280;16752;53.364;-1.488;2023-07-31T15:37:59;98791.91;;;24.70;45.53
29879;BME280;16752;53.364;-1.488;2023-07-31T15:40:43;98742.09;;;24.57;45.70
29879;BME280;16752;53.364;-1.488;2023-07-31T15:43:30;98846.19;;;25.19;46.38
29879;BME280;16752;53.364;-1.488;2023-07-31T15:46:14;98857.44;;;24.97;47.95
29879;BME280;16752;53.364;-1.488;2023-07-31T15:49:01;98694.56;;;22.71;49.50
29879;BME280;16752;53.364;-1.488;2023-07-31T15:51:48;98775.13;;;23.55;48.84
29879;BME280;16752;53.364;-1.488;2023-07-31T15:54:33;98738.47;;;22.82;49.47
29879;BME280;16752;53.364;-1.488;2023-07-31T15:57:23;98686.72;;;22.51;49.54
29879;BME280;16752;53.364;-1.488;2023-07-31T16:00:07;98794.09;;;22.85;49.48
29879;BME280;16752;53.364;-1.488;2023-07-31T16:02:59;98840.50;;;23.34;49.43
29879;BME280;16752;53.364;-1.488;2023-07-31T16:12:20;98734.13;;;24.51;46.38
29879;BME280;16752;53.364;-1.488;2023-07-31T16:15:27;98668.75;;;25.05;41.07
29879;BME280;16752;53.364;-1.488;2023-07-31T16:18:20;98771.03;;;26.79;38.41
29879;BME280;16752;53.364;-1.488;2023-07-31T16:21:04;98714.94;;;28.36;38.02
29879;BME280;16752;53.364;-1.488;2023-07-31T16:23:54;98821.84;;;28.63;36.45
29879;BME280;16752;53.364;-1.488;2023-07-31T16:26:58;98716.94;;;27.09;38.40
29879;BME280;16752;53.364;-1.488;2023-07-31T16:29:50;98672.13;;;24.77;42.27
29879;BME280;16752;53.364;-1.488;2023-07-31T16:32:54;98756.47;;;24.33;43.14
29879;BME280;16752;53.364;-1.488;2023-07-31T16:35:50;98709.25;;;23.42;44.35
29879;BME280;16752;53.364;-1.488;2023-07-31T16:38:34;98715.50;;;23.54;44.95
29879;BME280;16752;53.364;-1.488;2023-07-31T16:41:37;98794.34;;;24.00;45.52
29879;BME280;16752;53.364;-1.488;2023-07-31T16:48:04;98690.53;;;23.42;44.83
29879;BME280;16752;53.364;-1.488;2023-07-31T16:50:49;98648.25;;;23.39;45.07
29879;BME280;16752;53.364;-1.488;2023-07-31T16:53:50;98689.09;;;23.64;44.71
29879;BME280;16752;53.364;-1.488;2023-07-31T17:00:42;98611.44;;;24.24;43.39
29879;BME280;16752;53.364;-1.488;2023-07-31T17:07:29;98768.03;;;25.74;43.14
29879;BME280;16752;53.364;-1.488;2023-07-31T17:10:22;98705.66;;;24.56;43.74
29879;BME280;16752;53.364;-1.488;2023-07-31T17:13:16;98680.63;;;24.09;44.03
29879;BME280;16752;53.364;-1.488;2023-07-31T17:16:01;98698.63;;;24.44;44.73
29879;BME280;16752;53.364;-1.488;2023-07-31T17:18:46;98689.00;;;24.78;44.34
29879;BME280;16752;53.364;-1.488;2023-07-31T17:21:34;98735.34;;;24.55;44.94
29879;BME280;16752;53.364;-1.488;2023-07-31T17:24:27;98693.22;;;24.20;44.64
29879;BME280;16752;53.364;-1.488;2023-07-31T17:27:27;98621.72;;;24.39;43.55
29879;BME280;16752;53.364;-1.488;2023-07-31T17:30:11;98655.34;;;24.47;43.49
29879;BME280;16752;53.364;-1.488;2023-07-31T17:33:02;98685.25;;;24.67;44.36
29879;BME280;16752;53.364;-1.488;2023-07-31T17:35:58;98695.63;;;24.98;43.60
29879;BME280;16752;53.364;-1.488;2023-07-31T17:38:48;98624.16;;;24.64;44.26